Time;durP1;ratioP1;P1;durP2;ratioP2;P2;SDS_P1;SDS_P2;PMS_P1;PMS_P2;Temp;Humidity;BMP_temperature;BMP_pressure;BME280_temperature;BME280_humidity;BME280_pressure;Samples;Min_cycle;Max_cycle;Signal;HPM_P1;HPM_P2
2023/10/11 00:01:29;;;;;;;17.10;15.80;;;15.10;99.90;;;;;;4867029;29;20459;-46
2023/10/11 00:03:56;;;;;;;17.57;16.30;;;15.10;99.90;;;;;;4866128;29;20447;-48
2023/10/11 00:06:24;;;;;;;17.03;15.80;;;15.10;99.90;;;;;;4866576;29;20522;-48
2023/10/11 00:08:51;;;;;;;18.33;17.03;;;15.20;99.90;;;;;;4866739;29;20436;-46
2023/10/11 00:11:23;;;;;;;17.60;16.40;;;15.20;99.90;;;;;;4867502;29;20429;-46
2023/10/11 00:13:49;;;;;;;17.90;16.50;;;15.20;99.90;;;;;;4866813;29;20449;-50
2023/10/11 00:16:17;;;;;;;18.47;17.03;;;15.20;99.90;;;;;;4866166;29;21042;-50
2023/10/11 00:18:43;;;;;;;17.60;16.33;;;15.20;99.90;;;;;;4864837;29;20240;-51
2023/10/11 00:21:10;;;;;;;18.67;17.10;;;15.20;99.90;;;;;;4865451;29;20931;-45
2023/10/11 00:23:38;;;;;;;18.80;17.30;;;15.20;99.90;;;;;;4865146;29;20440;-50
2023/10/11 00:26:06;;;;;;;18.60;17.20;;;15.10;99.90;;;;;;4865705;29;20507;-49
2023/10/11 00:28:33;;;;;;;18.10;16.80;;;15.00;99.90;;;;;;4866344;29;20447;-46
2023/10/11 00:31:01;;;;;;;18.50;17.20;;;15.00;99.90;;;;;;4865699;29;20428;-49
2023/10/11 00:33:33;;;;;;;19.40;17.80;;;14.90;99.90;;;;;;4865567;29;20424;-48
2023/10/11 00:36:01;;;;;;;18.90;17.50;;;14.80;99.90;;;;;;4865173;29;20843;-47
2023/10/11 00:38:27;;;;;;;18.30;16.90;;;14.80;99.90;;;;;;4865904;29;20432;-45
2023/10/11 00:41:18;;;;;;;18.93;17.50;;;14.70;99.90;;;;;;4865282;29;20855;-47
2023/10/11 00:43:54;;;;;;;19.40;17.90;;;14.70;99.90;;;;;;4865436;29;20831;-48
2023/10/11 00:46:36;;;;;;;18.33;16.80;;;14.60;99.90;;;;;;4866049;29;20436;-49
2023/10/11 00:49:20;;;;;;;18.50;17.10;;;14.50;99.90;;;;;;4867177;29;20494;-48
2023/10/11 00:51:49;;;;;;;18.30;16.90;;;14.50;99.90;;;;;;4869395;29;20431;-41
2023/10/11 00:54:15;;;;;;;19.40;17.90;;;14.40;99.90;;;;;;4868990;29;20450;-44
2023/10/11 00:56:45;;;;;;;18.77;17.33;;;14.40;99.90;;;;;;4869229;29;21394;-50
2023/10/11 00:59:14;;;;;;;18.27;16.87;;;14.40;99.90;;;;;;4869034;29;20898;-52
2023/10/11 01:01:44;;;;;;;18.13;16.80;;;14.30;99.90;;;;;;4868989;29;20424;-49
2023/10/11 01:04:10;;;;;;;19.80;18.40;;;14.30;99.90;;;;;;4868881;29;20432;-43
2023/10/11 01:06:36;;;;;;;18.30;16.90;;;14.20;99.90;;;;;;4869204;29;20435;-45
2023/10/11 01:09:15;;;;;;;19.87;18.27;;;14.20;99.90;;;;;;4868890;29;20511;-50
2023/10/11 01:11:41;;;;;;;18.90;17.37;;;14.10;99.90;;;;;;4868957;29;20443;-49
2023/10/11 01:14:08;;;;;;;18.80;17.30;;;14.00;99.90;;;;;;4867492;29;20451;-47
2023/10/11 01:16:35;;;;;;;19.13;17.47;;;14.00;99.90;;;;;;4868447;29;20922;-48
2023/10/11 01:19:01;;;;;;;18.40;17.00;;;14.00;99.90;;;;;;4869002;29;20421;-47
2023/10/11 01:21:32;;;;;;;18.17;16.80;;;14.00;99.90;;;;;;4868284;29;20432;-50
2023/10/11 01:23:58;;;;;;;19.20;17.60;;;13.90;99.90;;;;;;4869154;29;20588;-50
2023/10/11 01:26:24;;;;;;;19.23;17.63;;;13.90;99.90;;;;;;4868525;29;20416;-48
2023/10/11 01:28:51;;;;;;;18.47;17.07;;;13.90;99.90;;;;;;4868405;29;20196;-49
2023/10/11 01:31:16;;;;;;;18.97;16.93;;;13.80;99.90;;;;;;4866988;29;20192;-52
2023/10/11 01:33:46;;;;;;;20.17;18.37;;;13.80;99.90;;;;;;4868658;29;20508;-48
2023/10/11 01:36:21;;;;;;;19.07;17.53;;;13.80;99.90;;;;;;4866648;29;20212;-50
2023/10/11 01:38:46;;;;;;;18.77;17.37;;;13.80;99.90;;;;;;4867146;29;20566;-49
2023/10/11 01:41:14;;;;;;;19.57;18.07;;;13.70;99.90;;;;;;4868156;29;20480;-50
2023/10/11 01:43:40;;;;;;;20.60;18.80;;;13.70;99.90;;;;;;4866458;29;20199;-52
2023/10/11 01:46:05;;;;;;;18.93;17.33;;;13.80;99.90;;;;;;4867444;29;20807;-49
2023/10/11 01:48:31;;;;;;;20.67;18.97;;;13.80;99.90;;;;;;4868347;29;20219;-45
2023/10/11 01:51:08;;;;;;;19.70;18.10;;;13.80;99.90;;;;;;4868498;29;20192;-46
2023/10/11 01:53:35;;;;;;;20.23;18.60;;;13.80;99.90;;;;;;4868235;29;20188;-48
2023/10/11 01:56:02;;;;;;;18.60;17.10;;;13.70;99.90;;;;;;4867826;29;20986;-46
2023/10/11 01:58:27;;;;;;;18.37;16.90;;;13.70;99.90;;;;;;4867835;29;20435;-44
2023/10/11 02:00:53;;;;;;;18.40;17.00;;;13.70;99.90;;;;;;4867797;29;20860;-46
2023/10/11 02:03:19;;;;;;;19.37;17.77;;;13.70;99.90;;;;;;4868026;29;20676;-48
2023/10/11 02:05:44;;;;;;;18.13;16.70;;;13.70;99.90;;;;;;4866947;29;20803;-43
2023/10/11 02:08:17;;;;;;;19.13;17.60;;;13.70;99.90;;;;;;4866763;29;20986;-49
2023/10/11 02:10:44;;;;;;;20.27;18.57;;;13.70;99.90;;;;;;4865923;29;20236;-47
2023/10/11 02:13:10;;;;;;;19.77;18.00;;;13.60;99.90;;;;;;4867793;29;20794;-48
2023/10/11 02:15:37;;;;;;;19.47;17.77;;;13.60;99.90;;;;;;4867100;29;20508;-45
2023/10/11 02:18:10;;;;;;;19.30;17.70;;;13.60;99.90;;;;;;4868242;29;20457;-52
2023/10/11 02:20:45;;;;;;;19.67;18.07;;;13.50;99.90;;;;;;4866412;29;20479;-46
2023/10/11 02:23:14;;;;;;;19.07;17.50;;;13.50;99.90;;;;;;4867532;29;20446;-45
2023/10/11 02:25:41;;;;;;;19.63;18.00;;;13.50;99.90;;;;;;4867576;29;20935;-51
2023/10/11 02:28:09;;;;;;;19.67;18.00;;;13.50;99.90;;;;;;4868006;29;20784;-47
2023/10/11 02:30:38;;;;;;;20.83;19.00;;;13.50;99.90;;;;;;4866301;29;20951;-49
2023/10/11 02:33:07;;;;;;;19.30;17.70;;;13.50;99.90;;;;;;4867460;29;20424;-45
2023/10/11 02:35:49;;;;;;;21.17;19.27;;;13.50;99.90;;;;;;4865913;29;20479;-47
2023/10/11 02:38:21;;;;;;;19.73;18.03;;;13.50;99.90;;;;;;4866783;29;21106;-48
2023/10/11 02:40:54;;;;;;;19.73;18.10;;;13.50;99.90;;;;;;4867369;29;20472;-52
2023/10/11 02:43:21;;;;;;;19.77;18.07;;;13.50;99.90;;;;;;4867246;29;20425;-49
2023/10/11 02:45:46;;;;;;;21.43;19.83;;;13.50;99.90;;;;;;4867021;29;20428;-46
2023/10/11 02:48:12;;;;;;;20.10;18.40;;;13.50;99.90;;;;;;4867267;29;20567;-52
2023/10/11 02:50:38;;;;;;;20.83;18.60;;;13.50;99.90;;;;;;4867082;29;20243;-46
2023/10/11 02:53:20;;;;;;;20.83;18.90;;;13.50;99.90;;;;;;4866968;29;20198;-49
2023/10/11 02:55:59;;;;;;;19.83;18.23;;;13.60;99.90;;;;;;4866779;29;20208;-50
2023/10/11 02:58:26;;;;;;;20.70;19.00;;;13.50;99.90;;;;;;4867417;29;20426;-48
2023/10/11 03:00:58;;;;;;;21.37;19.47;;;13.60;99.90;;;;;;4866238;29;20439;-47
2023/10/11 03:03:26;;;;;;;19.60;17.97;;;13.50;99.90;;;;;;4866856;29;21274;-45
2023/10/11 03:05:52;;;;;;;21.07;19.00;;;13.60;99.90;;;;;;4866698;29;20531;-46
2023/10/11 03:08:19;;;;;;;21.20;19.20;;;13.60;99.90;;;;;;4866215;29;21023;-45
2023/10/11 03:10:53;;;;;;;21.67;19.73;;;13.60;99.90;;;;;;4866675;29;20420;-47
2023/10/11 03:13:24;;;;;;;20.53;18.63;;;13.60;99.90;;;;;;4866355;29;20440;-48
2023/10/11 03:15:56;;;;;;;21.20;18.97;;;13.60;99.90;;;;;;4866479;29;20635;-51
2023/10/11 03:18:31;;;;;;;20.37;18.50;;;13.60;99.90;;;;;;4865706;29;20456;-50
2023/10/11 03:21:07;;;;;;;19.83;18.13;;;13.60;99.90;;;;;;4866793;29;20412;-48
2023/10/11 03:23:43;;;;;;;19.80;18.17;;;13.60;99.90;;;;;;4866741;29;20519;-48
2023/10/11 03:26:19;;;;;;;20.00;18.33;;;13.50;99.90;;;;;;4867086;29;21105;-47
2023/10/11 03:28:56;;;;;;;18.10;16.40;;;13.50;99.90;;;;;;4867522;29;20527;-50
2023/10/11 03:31:22;;;;;;;20.80;18.90;;;13.50;99.90;;;;;;4875370;29;20456;-41
2023/10/11 03:33:48;;;;;;;19.37;17.50;;;13.50;99.90;;;;;;4880976;29;20519;-44
2023/10/11 03:36:26;;;;;;;19.77;17.77;;;13.40;99.90;;;;;;4874964;29;20528;-47
2023/10/11 03:38:52;;;;;;;18.30;16.80;;;13.40;99.90;;;;;;4874368;29;20327;-50
2023/10/11 03:41:25;;;;;;;18.90;17.30;;;13.40;99.90;;;;;;4874669;29;20567;-48
2023/10/11 03:43:54;;;;;;;19.47;17.77;;;13.40;99.90;;;;;;4879925;29;20794;-49
2023/10/11 03:46:25;;;;;;;20.17;18.03;;;13.50;99.90;;;;;;4862862;29;20463;-47
2023/10/11 03:49:02;;;;;;;20.50;18.90;;;13.50;99.90;;;;;;4879564;29;20415;-46
2023/10/11 03:51:29;;;;;;;19.67;18.00;;;13.50;99.90;;;;;;4875271;29;20974;-45
2023/10/11 03:53:54;;;;;;;20.10;18.40;;;13.50;99.90;;;;;;4876992;29;20514;-50
2023/10/11 03:56:20;;;;;;;20.23;18.50;;;13.50;99.90;;;;;;4880611;29;20499;-49
2023/10/11 03:58:50;;;;;;;19.10;17.50;;;13.40;99.90;;;;;;4877016;29;20238;-45
2023/10/11 04:03:44;;;;;;;19.73;18.03;;;13.40;99.90;;;;;;4875829;29;20936;-45
2023/10/11 04:06:19;;;;;;;19.47;17.67;;;13.40;99.90;;;;;;4874289;29;20888;-47
2023/10/11 04:08:56;;;;;;;18.83;17.23;;;13.50;99.90;;;;;;4876473;29;20194;-47
2023/10/11 04:11:37;;;;;;;19.63;18.10;;;13.50;99.90;;;;;;4882397;29;20874;-46
2023/10/11 04:14:17;;;;;;;20.40;18.60;;;13.50;99.90;;;;;;4878179;29;20431;-51
2023/10/11 04:16:44;;;;;;;19.67;18.10;;;13.50;99.90;;;;;;4865774;29;20570;-50
2023/10/11 04:19:10;;;;;;;18.70;17.20;;;13.60;99.90;;;;;;4866375;29;20408;-50
2023/10/11 04:24:13;;;;;;;18.83;17.30;;;13.60;99.90;;;;;;4869963;29;20420;-48
2023/10/11 04:26:51;;;;;;;19.67;17.83;;;13.60;99.90;;;;;;4868518;29;20664;-46
2023/10/11 04:29:19;;;;;;;20.00;18.30;;;13.60;99.90;;;;;;4869935;29;20428;-48
2023/10/11 04:32:04;;;;;;;20.03;18.33;;;13.60;99.90;;;;;;4869346;29;20415;-50
2023/10/11 04:34:32;;;;;;;19.77;18.00;;;13.60;99.90;;;;;;4869346;29;20184;-50
2023/10/11 04:37:00;;;;;;;20.47;18.63;;;13.50;99.90;;;;;;4869126;29;20468;-47
2023/10/11 04:39:34;;;;;;;19.63;18.03;;;13.50;99.90;;;;;;4868111;29;20927;-46
2023/10/11 04:42:00;;;;;;;19.87;17.77;;;13.50;99.90;;;;;;4868718;29;20737;-49
2023/10/11 04:45:04;;;;;;;19.80;18.10;;;13.40;99.90;;;;;;4869948;29;20499;-48
2023/10/11 04:47:23;;;;;;;18.30;16.90;;;13.40;99.90;;;;;;4868929;29;20433;-46
2023/10/11 04:49:52;;;;;;;19.73;18.13;;;13.40;99.90;;;;;;4869650;29;20412;-44
2023/10/11 04:52:25;;;;;;;18.97;17.37;;;13.30;99.90;;;;;;4869667;29;20428;-49
2023/10/11 04:54:54;;;;;;;19.43;17.70;;;13.30;99.90;;;;;;4868545;29;20448;-45
2023/10/11 04:57:24;;;;;;;19.67;18.00;;;13.30;99.90;;;;;;4867334;29;20442;-48
2023/10/11 04:59:59;;;;;;;18.47;16.97;;;13.30;99.90;;;;;;4866771;29;20769;-52
2023/10/11 05:02:32;;;;;;;19.37;17.77;;;13.30;99.90;;;;;;4868268;29;20435;-49
2023/10/11 05:05:05;;;;;;;19.03;17.43;;;13.30;99.90;;;;;;4869301;29;20431;-44
2023/10/11 05:07:32;;;;;;;19.97;18.30;;;13.30;99.90;;;;;;4869216;29;20959;-48
2023/10/11 05:11:03;;;;;;;18.67;17.07;;;13.30;99.90;;;;;;4869004;29;20428;-48
2023/10/11 05:13:13;;;;;;;19.40;17.70;;;13.30;99.90;;;;;;4863749;29;20948;-50
2023/10/11 05:15:47;;;;;;;18.60;17.00;;;13.40;99.90;;;;;;4868451;29;20492;-46
2023/10/11 05:18:18;;;;;;;18.73;17.20;;;13.40;99.90;;;;;;4867930;29;20421;-45
2023/10/11 05:20:57;;;;;;;19.53;17.73;;;13.30;99.90;;;;;;4868199;29;20421;-48
2023/10/11 05:23:32;;;;;;;19.90;18.10;;;13.30;99.90;;;;;;4868959;29;20412;-48
2023/10/11 05:25:58;;;;;;;18.77;17.00;;;13.30;99.90;;;;;;4868814;29;20420;-46
2023/10/11 05:28:27;;;;;;;19.27;17.47;;;13.30;99.90;;;;;;4866656;29;20440;-49
2023/10/11 05:34:12;;;;;;;18.63;17.20;;;13.30;99.90;;;;;;4867876;29;20439;-46
2023/10/11 05:52:55;;;;;;;19.17;17.27;;;13.60;99.90;;;;;;4865128;29;20473;-48
2023/10/11 05:55:24;;;;;;;19.13;17.57;;;13.60;99.90;;;;;;4866458;29;20511;-46
2023/10/11 05:57:50;;;;;;;19.50;17.87;;;13.70;99.90;;;;;;4868058;29;20463;-46
2023/10/11 06:00:23;;;;;;;17.90;16.40;;;13.80;99.90;;;;;;4867354;29;20428;-47
2023/10/11 06:02:51;;;;;;;18.17;16.77;;;13.90;99.90;;;;;;4865100;29;20436;-49
2023/10/11 06:05:20;;;;;;;19.27;17.57;;;13.90;99.90;;;;;;4865284;29;20449;-45
2023/10/11 06:07:51;;;;;;;19.37;17.77;;;14.00;99.90;;;;;;4867937;29;20434;-49
2023/10/11 06:10:19;;;;;;;17.20;15.90;;;14.00;99.90;;;;;;4868181;29;20453;-48
2023/10/11 06:12:45;;;;;;;17.90;16.50;;;14.10;99.90;;;;;;4866138;29;20443;-45
2023/10/11 06:15:17;;;;;;;18.23;16.67;;;14.10;99.90;;;;;;4866119;29;20864;-48
2023/10/11 06:17:42;;;;;;;17.80;16.50;;;14.20;99.90;;;;;;4865963;29;20433;-47
2023/10/11 06:20:27;;;;;;;18.93;17.03;;;14.20;99.90;;;;;;4867548;29;20432;-44
2023/10/11 06:22:54;;;;;;;19.03;17.13;;;14.30;99.90;;;;;;4865904;29;20986;-50
2023/10/11 06:25:49;;;;;;;18.60;17.13;;;14.30;99.90;;;;;;4866657;29;20448;-47
2023/10/11 06:28:13;;;;;;;18.73;16.93;;;14.40;99.90;;;;;;4865156;29;21204;-47
2023/10/11 06:30:40;;;;;;;17.83;16.43;;;14.40;99.90;;;;;;4864919;29;20475;-44
2023/10/11 06:33:07;;;;;;;18.10;16.50;;;14.50;99.90;;;;;;4865434;29;20436;-48
2023/10/11 06:35:43;;;;;;;18.17;16.73;;;14.60;99.90;;;;;;4865229;29;20456;-46
2023/10/11 06:38:10;;;;;;;17.93;16.53;;;14.70;99.90;;;;;;4865211;29;20423;-44
2023/10/11 06:40:39;;;;;;;17.80;16.50;;;14.80;99.90;;;;;;4864330;29;20476;-50
2023/10/11 06:43:08;;;;;;;17.60;16.10;;;14.80;99.90;;;;;;4866588;29;20416;-47
2023/10/11 06:45:35;;;;;;;18.70;17.20;;;14.80;99.90;;;;;;4866784;29;21498;-49
2023/10/11 06:48:06;;;;;;;18.20;16.87;;;14.90;99.90;;;;;;4867801;29;20916;-49
2023/10/11 06:50:36;;;;;;;17.53;16.00;;;14.90;99.90;;;;;;4868050;29;21285;-46
2023/10/11 06:53:06;;;;;;;17.53;16.13;;;14.90;99.90;;;;;;4865353;29;20452;-50
2023/10/11 06:55:36;;;;;;;16.17;14.87;;;15.00;99.90;;;;;;4866441;29;20518;-49
2023/10/11 06:58:09;;;;;;;18.23;16.50;;;15.10;99.90;;;;;;4864565;29;20440;-46
2023/10/11 07:00:38;;;;;;;18.30;16.80;;;15.10;99.90;;;;;;4867346;29;21545;-48
2023/10/11 07:05:48;;;;;;;17.20;15.90;;;15.20;99.90;;;;;;4867693;29;20796;-50
2023/10/11 07:08:17;;;;;;;17.00;15.63;;;15.20;99.90;;;;;;4867196;29;20442;-44
2023/10/11 07:11:04;;;;;;;16.40;15.20;;;15.30;99.90;;;;;;4867458;29;20515;-40
2023/10/11 07:14:16;;;;;;;18.07;16.60;;;15.30;99.90;;;;;;4867708;29;20472;-46
2023/10/11 07:16:22;;;;;;;17.33;15.93;;;15.40;99.90;;;;;;4862940;29;20849;-46
2023/10/11 07:18:53;;;;;;;17.17;15.87;;;15.50;99.90;;;;;;4864912;29;20915;-49
2023/10/11 07:21:26;;;;;;;16.30;15.10;;;15.60;99.90;;;;;;4865236;29;20429;-46
2023/10/11 07:28:59;;;;;;;17.70;16.37;;;15.80;99.90;;;;;;4866201;29;20912;-46
2023/10/11 07:31:32;;;;;;;16.90;15.73;;;15.90;99.90;;;;;;4865787;29;20935;-46
2023/10/11 07:34:05;;;;;;;17.20;16.00;;;15.90;99.90;;;;;;4865277;29;20424;-44
2023/10/11 07:36:37;;;;;;;16.33;15.20;;;16.00;99.90;;;;;;4863694;29;20480;-47
2023/10/11 07:39:26;;;;;;;17.70;16.30;;;16.00;99.90;;;;;;4864353;29;20416;-48
2023/10/11 07:42:09;;;;;;;16.10;15.00;;;16.10;99.90;;;;;;4864389;29;20515;-44
2023/10/11 07:44:38;;;;;;;16.43;15.13;;;16.20;99.90;;;;;;4864408;29;20516;-44
2023/10/11 07:47:06;;;;;;;17.13;15.77;;;16.30;99.90;;;;;;4862580;29;20472;-45
2023/10/11 07:49:38;;;;;;;16.97;15.73;;;16.30;99.90;;;;;;4861563;29;20474;-50
2023/10/11 07:52:08;;;;;;;17.37;15.87;;;16.50;99.90;;;;;;4864374;29;20942;-47
2023/10/11 07:54:35;;;;;;;17.53;16.23;;;16.60;99.90;;;;;;4862719;29;20428;-47
2023/10/11 07:57:03;;;;;;;16.90;15.60;;;16.90;99.90;;;;;;4866057;29;20474;-49
2023/10/11 07:59:30;;;;;;;16.70;15.40;;;17.00;99.90;;;;;;4866590;29;20424;-51
2023/10/11 08:01:59;;;;;;;15.53;14.13;;;17.10;99.90;;;;;;4866803;29;20547;-48
2023/10/11 08:04:28;;;;;;;20.27;16.53;;;17.40;99.90;;;;;;4866840;29;20417;-52
2023/10/11 08:07:03;;;;;;;16.03;14.87;;;17.80;99.90;;;;;;4867020;29;20436;-48
2023/10/11 08:09:45;;;;;;;15.90;14.70;;;18.10;99.90;;;;;;4866496;29;20947;-48
2023/10/11 08:12:14;;;;;;;16.07;14.70;;;18.60;99.90;;;;;;4866346;29;20416;-45
2023/10/11 08:14:46;;;;;;;16.27;14.90;;;19.10;99.90;;;;;;4865641;29;21262;-49
2023/10/11 08:17:16;;;;;;;15.87;14.77;;;19.50;99.90;;;;;;4864291;29;20511;-44
2023/10/11 08:19:44;;;;;;;15.47;14.47;;;20.10;99.90;;;;;;4864286;29;20424;-47
2023/10/11 08:22:14;;;;;;;16.00;14.80;;;20.70;99.90;;;;;;4862219;29;20839;-47
2023/10/11 08:24:49;;;;;;;16.00;14.90;;;20.90;99.90;;;;;;4861854;29;20479;-49
2023/10/11 08:27:27;;;;;;;15.57;14.43;;;21.10;99.90;;;;;;4862184;29;20566;-44
2023/10/11 08:30:15;;;;;;;16.47;15.17;;;21.60;99.90;;;;;;4865542;29;21019;-50
2023/10/11 08:32:46;;;;;;;15.13;14.03;;;21.90;98.80;;;;;;4864362;29;20423;-49
2023/10/11 08:35:16;;;;;;;16.07;14.97;;;22.10;98.40;;;;;;4864949;29;20925;-42
2023/10/11 08:37:43;;;;;;;16.67;15.47;;;22.30;97.80;;;;;;4864269;29;20420;-49
2023/10/11 08:40:34;;;;;;;15.77;14.67;;;22.50;96.40;;;;;;4864152;29;20884;-48
2023/10/11 08:43:02;;;;;;;16.00;14.80;;;22.80;96.60;;;;;;4864179;29;20927;-48
2023/10/11 08:45:33;;;;;;;15.40;14.37;;;23.20;95.30;;;;;;4864006;29;20539;-45
2023/10/11 08:48:06;;;;;;;14.10;13.20;;;23.90;96.00;;;;;;4865539;29;20421;-50
2023/10/11 08:50:36;;;;;;;15.13;14.13;;;24.40;90.70;;;;;;4865544;29;20440;-49
2023/10/11 08:53:09;;;;;;;15.53;14.50;;;24.80;88.30;;;;;;4865230;29;20444;-51
2023/10/11 08:55:39;;;;;;;16.30;15.00;;;24.80;80.80;;;;;;4865612;29;20538;-41
2023/10/11 08:58:12;;;;;;;14.90;13.90;;;25.30;80.80;;;;;;4865888;29;20438;-44
2023/10/11 09:00:37;;;;;;;14.90;13.90;;;25.70;77.80;;;;;;4865918;29;20440;-47
2023/10/11 09:03:39;;;;;;;15.73;14.73;;;26.10;73.30;;;;;;4865511;29;20840;-50
2023/10/11 09:06:25;;;;;;;16.30;15.30;;;26.30;70.20;;;;;;4865825;29;20247;-44
2023/10/11 09:08:51;;;;;;;15.00;14.10;;;26.40;69.80;;;;;;4867529;29;20440;-49
2023/10/11 09:11:30;;;;;;;14.47;13.67;;;26.60;67.00;;;;;;4868817;29;20811;-48
2023/10/11 09:14:22;;;;;;;15.63;14.53;;;26.60;62.90;;;;;;4868865;29;20833;-48
2023/10/11 09:16:57;;;;;;;15.90;14.30;;;26.90;65.60;;;;;;4867415;29;21090;-50
2023/10/11 09:19:26;;;;;;;15.50;14.50;;;27.70;63.10;;;;;;4869013;29;20553;-48
2023/10/11 09:22:04;;;;;;;14.00;13.10;;;28.10;64.00;;;;;;4867198;29;20451;-42
2023/10/11 09:24:41;;;;;;;14.40;13.50;;;28.70;59.30;;;;;;4869259;29;20781;-51
2023/10/11 09:29:43;;;;;;;14.90;14.00;;;29.60;52.50;;;;;;4868535;29;20511;-48
2023/10/11 09:32:09;;;;;;;14.53;13.73;;;30.00;51.20;;;;;;4868606;29;20924;-50
2023/10/11 09:34:41;;;;;;;15.07;13.97;;;30.30;51.70;;;;;;4868861;29;20479;-49
2023/10/11 09:37:14;;;;;;;16.30;15.20;;;30.40;52.70;;;;;;4868926;29;20511;-47
2023/10/11 09:39:42;;;;;;;15.40;14.40;;;30.20;50.60;;;;;;4868504;29;20571;-44
2023/10/11 09:42:14;;;;;;;13.93;13.10;;;30.30;51.60;;;;;;4868312;29;20654;-46
2023/10/11 09:44:43;;;;;;;15.33;14.43;;;30.30;50.90;;;;;;4868452;29;20420;-51
2023/10/11 09:47:31;;;;;;;15.70;14.50;;;30.50;49.00;;;;;;4868025;29;20826;-48
2023/10/11 09:50:00;;;;;;;13.90;13.00;;;30.70;48.90;;;;;;4867432;29;20444;-45
2023/10/11 09:52:28;;;;;;;14.77;13.87;;;31.00;45.80;;;;;;4868007;29;20515;-49
2023/10/11 09:54:55;;;;;;;14.13;13.13;;;31.10;46.50;;;;;;4868297;29;20471;-46
2023/10/11 09:57:32;;;;;;;14.80;13.80;;;31.50;45.30;;;;;;4868206;29;20482;-49
2023/10/11 10:00:14;;;;;;;12.60;11.70;;;31.20;38.30;;;;;;4868411;29;20448;-50
2023/10/11 10:02:44;;;;;;;13.40;12.60;;;31.70;37.50;;;;;;4868267;29;20423;-47
2023/10/11 10:05:11;;;;;;;14.30;13.20;;;32.10;37.30;;;;;;4868570;29;20543;-47
2023/10/11 10:10:07;;;;;;;12.73;11.90;;;31.10;30.20;;;;;;4868291;29;20463;-46
2023/10/11 10:12:54;;;;;;;13.33;12.57;;;31.10;28.90;;;;;;4867822;29;20439;-44
2023/10/11 10:15:23;;;;;;;13.90;13.00;;;30.20;28.20;;;;;;4867749;29;20470;-42
2023/10/11 10:18:00;;;;;;;12.30;11.60;;;30.60;31.70;;;;;;4867788;29;20800;-47
2023/10/11 10:20:38;;;;;;;12.57;11.87;;;30.10;28.10;;;;;;4866445;29;20435;-46
2023/10/11 10:23:16;;;;;;;12.93;12.13;;;29.90;29.30;;;;;;4867770;29;20416;-47
2023/10/11 10:25:50;;;;;;;12.10;11.50;;;29.80;29.00;;;;;;4867974;29;20998;-43
2023/10/11 10:28:47;;;;;;;12.47;11.67;;;29.70;28.60;;;;;;4867550;29;20436;-45
2023/10/11 10:31:17;;;;;;;12.30;11.50;;;29.30;29.40;;;;;;4867126;29;20436;-42
2023/10/11 10:33:49;;;;;;;13.67;12.77;;;29.00;30.10;;;;;;4865703;29;20459;-49
2023/10/11 10:36:21;;;;;;;12.80;12.00;;;29.30;30.30;;;;;;4867020;29;20464;-48
2023/10/11 10:39:04;;;;;;;12.63;11.93;;;29.60;29.60;;;;;;4863667;29;20439;-50
2023/10/11 10:41:32;;;;;;;12.73;12.03;;;29.90;29.40;;;;;;4865190;29;20468;-52
2023/10/11 10:44:04;;;;;;;13.50;12.60;;;29.80;28.80;;;;;;4866535;29;20420;-49
2023/10/11 10:46:31;;;;;;;13.57;12.37;;;29.50;29.40;;;;;;4867125;29;20451;-48
2023/10/11 10:48:57;;;;;;;12.93;11.77;;;29.60;29.50;;;;;;4865945;29;20515;-51
2023/10/11 10:51:25;;;;;;;13.17;12.30;;;29.90;28.70;;;;;;4866531;29;20452;-50
2023/10/11 10:53:53;;;;;;;12.97;12.17;;;29.90;28.50;;;;;;4866167;29;20186;-47
2023/10/11 10:56:19;;;;;;;12.33;11.63;;;30.00;27.80;;;;;;4864765;29;20468;-52
2023/10/11 10:58:45;;;;;;;12.30;11.40;;;29.90;27.70;;;;;;4866342;29;20175;-44
2023/10/11 11:01:10;;;;;;;12.60;11.83;;;29.90;27.50;;;;;;4867404;29;20194;-49
2023/10/11 11:03:36;;;;;;;12.33;11.60;;;29.80;28.40;;;;;;4863750;29;20191;-51
2023/10/11 11:06:03;;;;;;;13.43;12.43;;;29.60;28.70;;;;;;4865574;29;20195;-48
2023/10/11 11:08:31;;;;;;;12.80;12.10;;;30.20;28.20;;;;;;4865806;29;20251;-51
2023/10/11 11:11:19;;;;;;;12.60;11.80;;;30.40;27.40;;;;;;4865649;29;20436;-47
2023/10/11 11:13:47;;;;;;;11.50;10.73;;;29.90;26.60;;;;;;4865450;29;20421;-48
2023/10/11 11:16:28;;;;;;;12.27;11.63;;;30.10;26.60;;;;;;4865128;29;20468;-50
2023/10/11 11:19:00;;;;;;;12.07;11.37;;;30.20;26.50;;;;;;4865864;29;20604;-48
2023/10/11 11:21:29;;;;;;;11.83;11.23;;;30.40;26.60;;;;;;4866313;29;20543;-49
2023/10/11 11:24:14;;;;;;;12.40;11.60;;;30.40;26.70;;;;;;4862760;29;20516;-46
2023/10/11 11:26:40;;;;;;;13.30;12.20;;;30.70;27.00;;;;;;4866078;29;20424;-46
2023/10/11 11:29:10;;;;;;;12.73;12.03;;;31.20;25.40;;;;;;4864049;29;20439;-48
2023/10/11 11:31:52;;;;;;;11.50;10.97;;;31.30;25.70;;;;;;4867312;29;20247;-49
2023/10/11 11:34:38;;;;;;;12.90;12.10;;;31.10;25.30;;;;;;4862459;29;20428;-46
2023/10/11 11:37:10;;;;;;;12.37;11.67;;;31.10;25.50;;;;;;4862740;29;20678;-48
2023/10/11 11:39:39;;;;;;;12.90;12.00;;;30.50;26.10;;;;;;4866941;29;20559;-49
2023/10/11 11:42:18;;;;;;;12.43;11.73;;;30.90;26.20;;;;;;4867385;29;20504;-50
2023/10/11 11:44:48;;;;;;;13.50;12.80;;;30.80;25.70;;;;;;4866695;29;20966;-52
2023/10/11 11:47:21;;;;;;;12.53;11.83;;;31.20;25.30;;;;;;4867728;29;20424;-47
2023/10/11 11:49:47;;;;;;;12.17;11.30;;;31.40;24.80;;;;;;4865749;29;20448;-48
2023/10/11 11:52:16;;;;;;;13.77;12.97;;;31.60;24.10;;;;;;4866331;29;20496;-48
2023/10/11 11:54:43;;;;;;;13.13;12.43;;;32.10;23.60;;;;;;4866811;29;21348;-47
2023/10/11 11:57:09;;;;;;;12.40;11.80;;;32.40;24.10;;;;;;4866897;29;20505;-50
2023/10/11 11:59:35;;;;;;;13.13;12.43;;;32.50;23.90;;;;;;4865992;29;20848;-47
2023/10/11 12:02:01;;;;;;;13.27;12.37;;;32.90;22.90;;;;;;4866792;29;20836;-49
2023/10/11 12:04:32;;;;;;;13.13;12.40;;;31.90;23.50;;;;;;4866401;29;20434;-45
2023/10/11 12:06:59;;;;;;;13.47;12.67;;;31.70;23.50;;;;;;4866957;29;20188;-46
2023/10/11 12:09:31;;;;;;;13.20;12.50;;;31.40;24.30;;;;;;4866771;29;20573;-49
2023/10/11 12:12:03;;;;;;;13.23;12.53;;;30.90;24.00;;;;;;4866682;29;20436;-50
2023/10/11 12:14:29;;;;;;;13.80;13.00;;;30.50;25.10;;;;;;4866594;29;20455;-45
2023/10/11 12:16:55;;;;;;;13.00;12.20;;;30.80;25.80;;;;;;4866405;29;20547;-45
2023/10/11 12:19:22;;;;;;;12.60;11.80;;;31.20;24.90;;;;;;4865981;29;20487;-44
2023/10/11 12:21:57;;;;;;;12.77;12.17;;;31.60;24.10;;;;;;4866554;29;20924;-50
2023/10/11 12:24:26;;;;;;;13.87;12.93;;;32.10;23.80;;;;;;4866275;29;20496;-48
2023/10/11 12:26:53;;;;;;;13.57;12.57;;;32.50;23.50;;;;;;4866432;29;20431;-48
2023/10/11 12:29:21;;;;;;;13.83;12.93;;;31.80;21.50;;;;;;4866593;29;20453;-47
2023/10/11 12:31:47;;;;;;;13.57;12.70;;;31.60;22.30;;;;;;4866952;29;20535;-50
2023/10/11 12:34:13;;;;;;;13.20;12.50;;;31.70;22.70;;;;;;4866287;29;20955;-46
2023/10/11 12:36:41;;;;;;;13.83;12.93;;;30.90;23.00;;;;;;4866184;29;20306;-49
2023/10/11 12:39:08;;;;;;;12.20;11.50;;;30.80;22.90;;;;;;4866236;29;20227;-48
2023/10/11 12:41:34;;;;;;;12.97;12.23;;;30.80;24.10;;;;;;4865543;29;20567;-51
2023/10/11 12:44:00;;;;;;;11.80;11.20;;;30.90;24.20;;;;;;4867792;29;20546;-50
2023/10/11 12:46:27;;;;;;;13.87;13.07;;;30.90;24.50;;;;;;4869279;29;20199;-49
2023/10/11 12:48:56;;;;;;;14.30;13.10;;;31.20;24.30;;;;;;4869053;29;20435;-48
2023/10/11 12:51:25;;;;;;;13.77;12.93;;;30.60;22.70;;;;;;4868593;29;20468;-53
2023/10/11 12:53:57;;;;;;;13.33;12.53;;;30.60;23.70;;;;;;4869563;29;20432;-52
2023/10/11 12:56:26;;;;;;;11.73;11.03;;;30.90;23.90;;;;;;4869808;29;20476;-50
2023/10/11 12:58:53;;;;;;;13.77;12.87;;;30.90;23.40;;;;;;4869691;29;21163;-50
2023/10/11 13:01:26;;;;;;;12.40;11.70;;;31.10;23.70;;;;;;4869473;29;20872;-50
2023/10/11 13:04:06;;;;;;;12.43;11.50;;;30.80;23.60;;;;;;4868596;29;20554;-51
2023/10/11 13:06:37;;;;;;;11.90;11.10;;;31.00;23.60;;;;;;4869421;29;20440;-51
2023/10/11 13:09:13;;;;;;;12.90;12.13;;;31.40;24.30;;;;;;4867114;29;20440;-46
2023/10/11 13:11:44;;;;;;;13.30;12.50;;;31.30;22.70;;;;;;4866457;29;20432;-48
2023/10/11 13:14:18;;;;;;;12.60;11.60;;;31.10;23.00;;;;;;4866930;29;20444;-48
2023/10/11 13:16:48;;;;;;;13.10;12.30;;;30.80;23.10;;;;;;4865649;29;20872;-46
2023/10/11 13:19:17;;;;;;;11.80;10.93;;;30.30;23.50;;;;;;4866984;29;20436;-46
2023/10/11 13:21:47;;;;;;;12.80;12.00;;;30.40;24.00;;;;;;4866213;29;20843;-50
2023/10/11 13:24:16;;;;;;;14.93;12.70;;;30.30;23.90;;;;;;4867271;29;20721;-50
2023/10/11 13:26:43;;;;;;;12.60;11.90;;;29.70;24.20;;;;;;4867018;29;20435;-47